sensor_id;sensor_type;location;lat;lon;timestamp;pressure;altitude;pressure_sealevel;temperature;humidity
62011;BME280;47967;51.756;10.174;2024-03-23T05:00:43;98730.41;;;5.96;100.00
62011;BME280;47967;51.756;10.174;2024-03-23T05:04:45;98734.91;;;5.96;100.00
62011;BME280;47967;51.756;10.174;2024-03-23T05:08:47;98713.25;;;5.90;100.00
62011;BME280;47967;51.756;10.174;2024-03-23T05:12:50;98714.34;;;5.96;100.00
62011;BME280;47967;51.756;10.174;2024-03-23T05:16:53;98719.84;;;5.88;100.00
62011;BME280;47967;51.756;10.174;2024-03-23T05:20:56;98721.84;;;5.79;100.00
62011;BME280;47967;51.756;10.174;2024-03-23T05:24:58;98721.78;;;5.72;100.00
62011;BME280;47967;51.756;10.174;2024-03-23T05:29:00;98719.88;;;5.66;100.00
62011;BME280;47967;51.756;10.174;2024-03-23T05:33:04;98713.75;;;5.72;100.00
62011;BME280;47967;51.756;10.174;2024-03-23T05:37:06;98716.38;;;5.66;100.00
62011;BME280;47967;51.756;10.174;2024-03-23T05:41:08;98713.31;;;5.69;100.00
62011;BME280;47967;51.756;10.174;2024-03-23T05:45:10;98710.16;;;5.58;100.00
62011;BME280;47967;51.756;10.174;2024-03-23T05:49:15;98707.03;;;5.55;100.00
62011;BME280;47967;51.756;10.174;2024-03-23T05:53:17;98730.13;;;5.63;100.00
62011;BME280;47967;51.756;10.174;2024-03-23T05:57:20;98727.53;;;5.69;100.00
62011;BME280;47967;51.756;10.174;2024-03-23T06:01:21;98731.81;;;5.64;100.00
62011;BME280;47967;51.756;10.174;2024-03-23T06:05:25;98733.34;;;5.51;100.00
62011;BME280;47967;51.756;10.174;2024-03-23T06:09:27;98721.13;;;5.42;100.00
62011;BME280;47967;51.756;10.174;2024-03-23T06:13:32;98730.13;;;5.34;100.00
62011;BME280;47967;51.756;10.174;2024-03-23T06:17:34;98735.00;;;5.09;100.00
62011;BME280;47967;51.756;10.174;2024-03-23T06:21:37;98726.28;;;5.00;100.00
62011;BME280;47967;51.756;10.174;2024-03-23T06:25:44;98741.06;;;4.96;100.00
62011;BME280;47967;51.756;10.174;2024-03-23T06:29:46;98722.78;;;5.00;100.00
62011;BME280;47967;51.756;10.174;2024-03-23T06:33:48;98743.16;;;5.01;100.00
62011;BME280;47967;51.756;10.174;2024-03-23T06:37:51;98752.25;;;5.06;100.00
62011;BME280;47967;51.756;10.174;2024-03-23T06:41:53;98770.56;;;4.88;100.00
62011;BME280;47967;51.756;10.174;2024-03-23T06:45:56;98760.94;;;4.72;100.00
62011;BME280;47967;51.756;10.174;2024-03-23T06:49:59;98765.75;;;4.61;100.00
62011;BME280;47967;51.756;10.174;2024-03-23T06:54:04;98761.22;;;4.62;100.00
62011;BME280;47967;51.756;10.174;2024-03-23T06:58:06;98782.59;;;4.47;100.00
62011;BME280;47967;51.756;10.174;2024-03-23T07:02:08;98767.03;;;4.51;100.00
62011;BME280;47967;51.756;10.174;2024-03-23T07:06:10;98779.63;;;4.42;100.00
62011;BME280;47967;51.756;10.174;2024-03-23T07:10:13;98795.78;;;4.33;100.00
62011;BME280;47967;51.756;10.174;2024-03-23T07:14:15;98792.72;;;4.37;100.00
62011;BME280;47967;51.756;10.174;2024-03-23T07:18:17;98801.94;;;4.34;100.00
62011;BME280;47967;51.756;10.174;2024-03-23T07:22:19;98777.34;;;4.39;100.00
62011;BME280;47967;51.756;10.174;2024-03-23T07:26:22;98779.19;;;4.23;100.00
62011;BME280;47967;51.756;10.174;2024-03-23T07:30:23;98781.59;;;4.18;100.00
62011;BME280;47967;51.756;10.174;2024-03-23T07:34:25;98793.34;;;4.09;100.00
62011;BME280;47967;51.756;10.174;2024-03-23T07:38:27;98813.88;;;3.93;100.00
62011;BME280;47967;51.756;10.174;2024-03-23T07:42:31;98806.78;;;4.00;100.00
62011;BME280;47967;51.756;10.174;2024-03-23T07:46:33;98791.78;;;3.99;100.00
62011;BME280;47967;51.756;10.174;2024-03-23T07:50:34;98824.44;;;4.01;100.00
62011;BME280;47967;51.756;10.174;2024-03-23T07:54:36;98813.59;;;4.03;100.00
62011;BME280;47967;51.756;10.174;2024-03-23T07:58:40;98811.13;;;4.16;100.00
62011;BME280;47967;51.756;10.174;2024-03-23T08:02:42;98800.56;;;4.38;100.00
62011;BME280;47967;51.756;10.174;2024-03-23T08:06:43;98810.97;;;4.48;100.00
62011;BME280;47967;51.756;10.174;2024-03-23T08:10:49;98808.56;;;4.68;100.00
62011;BME280;47967;51.756;10.174;2024-03-23T08:14:52;98824.41;;;4.85;100.00
62011;BME280;47967;51.756;10.174;2024-03-23T08:18:54;98820.41;;;4.95;100.00
62011;BME280;47967;51.756;10.174;2024-03-23T08:22:57;98824.28;;;4.93;100.00
62011;BME280;47967;51.756;10.174;2024-03-23T08:26:58;98837.94;;;4.98;100.00
62011;BME280;47967;51.756;10.174;2024-03-23T08:31:04;98829.69;;;5.15;100.00
62011;BME280;47967;51.756;10.174;2024-03-23T08:35:07;98847.09;;;5.25;100.00
62011;BME280;47967;51.756;10.174;2024-03-23T08:39:10;98847.09;;;5.25;100.00
62011;BME280;47967;51.756;10.174;2024-03-23T08:43:12;98856.72;;;5.41;100.00
62011;BME280;47967;51.756;10.174;2024-03-23T08:47:15;98849.72;;;5.40;100.00
62011;BME280;47967;51.756;10.174;2024-03-23T08:51:17;98850.84;;;5.31;100.00
62011;BME280;47967;51.756;10.174;2024-03-23T08:55:19;98833.09;;;5.45;100.00
62011;BME280;47967;51.756;10.174;2024-03-23T08:59:20;98847.50;;;5.66;100.00
62011;BME280;47967;51.756;10.174;2024-03-23T09:03:25;98853.06;;;5.64;100.00
62011;BME280;47967;51.756;10.174;2024-03-23T09:07:27;98858.13;;;5.59;100.00
62011;BME280;47967;51.756;10.174;2024-03-23T09:11:29;98861.13;;;5.71;100.00
62011;BME280;47967;51.756;10.174;2024-03-23T09:15:32;98865.53;;;6.22;100.00
62011;BME280;47967;51.756;10.174;2024-03-23T09:19:35;98866.44;;;6.64;100.00
62011;BME280;47967;51.756;10.174;2024-03-23T09:23:37;98845.38;;;6.96;100.00
62011;BME280;47967;51.756;10.174;2024-03-23T09:27:39;98861.69;;;7.01;100.00
62011;BME280;47967;51.756;10.174;2024-03-23T09:31:41;98857.59;;;7.12;100.00
62011;BME280;47967;51.756;10.174;2024-03-23T09:35:44;98874.28;;;7.01;100.00
62011;BME280;47967;51.756;10.174;2024-03-23T09:39:46;98874.56;;;7.26;100.00
62011;BME280;47967;51.756;10.174;2024-03-23T09:43:48;98875.25;;;7.42;100.00
62011;BME280;47967;51.756;10.174;2024-03-23T09:47:50;98870.31;;;7.45;100.00
62011;BME280;47967;51.756;10.174;2024-03-23T09:51:53;98872.84;;;7.67;100.00
62011;BME280;47967;51.756;10.174;2024-03-23T09:55:56;98862.75;;;7.82;100.00
62011;BME280;47967;51.756;10.174;2024-03-23T09:59:57;98866.28;;;8.23;100.00
62011;BME280;47967;51.756;10.174;2024-03-23T10:03:59;98859.88;;;8.24;100.00
62011;BME280;47967;51.756;10.174;2024-03-23T10:08:17;98854.91;;;8.55;100.00
62011;BME280;47967;51.756;10.174;2024-03-23T10:12:20;98846.88;;;9.13;100.00
62011;BME280;47967;51.756;10.174;2024-03-23T10:16:23;98841.84;;;9.31;100.00
62011;BME280;47967;51.756;10.174;2024-03-23T10:20:27;98840.00;;;9.18;100.00
62011;BME280;47967;51.756;10.174;2024-03-23T10:24:30;98833.88;;;9.04;100.00
62011;BME280;47967;51.756;10.174;2024-03-23T10:28:32;98826.88;;;8.96;100.00
62011;BME280;47967;51.756;10.174;2024-03-23T10:32:34;98835.16;;;9.40;100.00
62011;BME280;47967;51.756;10.174;2024-03-23T10:36:38;98823.41;;;9.66;100.00
62011;BME280;47967;51.756;10.174;2024-03-23T10:40:43;98812.00;;;9.96;100.00
62011;BME280;47967;51.756;10.174;2024-03-23T10:44:45;98810.81;;;10.10;99.96
62011;BME280;47967;51.756;10.174;2024-03-23T10:48:48;98797.94;;;9.87;99.42
62011;BME280;47967;51.756;10.174;2024-03-23T10:52:52;98812.47;;;9.61;100.00
62011;BME280;47967;51.756;10.174;2024-03-23T10:57:02;98804.22;;;10.06;100.00
62011;BME280;47967;51.756;10.174;2024-03-23T11:01:05;98808.31;;;10.16;98.33
62011;BME280;47967;51.756;10.174;2024-03-23T11:05:28;98803.78;;;9.84;95.73
62011;BME280;47967;51.756;10.174;2024-03-23T11:09:48;98813.03;;;10.64;91.26
62011;BME280;47967;51.756;10.174;2024-03-23T11:13:54;98809.38;;;10.77;90.58
62011;BME280;47967;51.756;10.174;2024-03-23T11:18:03;98804.22;;;10.76;90.15
62011;BME280;47967;51.756;10.174;2024-03-23T11:22:05;98812.25;;;9.88;78.33
62011;BME280;47967;51.756;10.174;2024-03-23T11:26:08;98807.84;;;9.68;76.28
62011;BME280;47967;51.756;10.174;2024-03-23T11:30:16;98800.00;;;10.43;77.02
62011;BME280;47967;51.756;10.174;2024-03-23T11:34:18;98793.84;;;11.10;77.87
62011;BME280;47967;51.756;10.174;2024-03-23T11:38:20;98834.44;;;10.40;76.19
62011;BME280;47967;51.756;10.174;2024-03-23T11:42:22;98868.72;;;6.67;100.00
62011;BME280;47967;51.756;10.174;2024-03-23T11:46:26;98918.63;;;4.33;100.00
62011;BME280;47967;51.756;10.174;2024-03-23T11:50:27;98892.13;;;4.47;100.00
62011;BME280;47967;51.756;10.174;2024-03-23T11:54:29;98886.72;;;5.37;100.00
62011;BME280;47967;51.756;10.174;2024-03-23T11:58:32;98843.47;;;5.55;100.00
62011;BME280;47967;51.756;10.174;2024-03-23T12:02:35;98837.19;;;6.06;100.00
62011;BME280;47967;51.756;10.174;2024-03-23T12:06:37;98850.72;;;6.54;100.00
62011;BME280;47967;51.756;10.174;2024-03-23T12:10:39;98831.78;;;7.04;100.00
62011;BME280;47967;51.756;10.174;2024-03-23T12:14:41;98816.44;;;7.53;100.00
62011;BME280;47967;51.756;10.174;2024-03-23T12:18:45;98820.59;;;7.83;100.00
62011;BME280;47967;51.756;10.174;2024-03-23T12:22:48;98815.03;;;8.18;100.00
62011;BME280;47967;51.756;10.174;2024-03-23T12:26:49;98820.75;;;8.69;100.00
62011;BME280;47967;51.756;10.174;2024-03-23T12:30:52;98807.69;;;8.79;100.00
62011;BME280;47967;51.756;10.174;2024-03-23T12:34:55;98813.13;;;8.45;100.00
62011;BME280;47967;51.756;10.174;2024-03-23T12:38:56;98848.09;;;8.12;100.00
62011;BME280;47967;51.756;10.174;2024-03-23T12:42:58;98858.34;;;6.93;100.00
62011;BME280;47967;51.756;10.174;2024-03-23T12:47:00;98859.66;;;6.68;100.00
62011;BME280;47967;51.756;10.174;2024-03-23T12:51:04;98867.19;;;6.86;100.00
62011;BME280;47967;51.756;10.174;2024-03-23T12:55:06;98858.00;;;7.09;100.00
62011;BME280;47967;51.756;10.174;2024-03-23T12:59:08;98852.47;;;7.17;100.00
62011;BME280;47967;51.756;10.174;2024-03-23T13:03:13;98856.03;;;7.38;100.00
62011;BME280;47967;51.756;10.174;2024-03-23T13:07:18;98848.88;;;7.72;100.00
62011;BME280;47967;51.756;10.174;2024-03-23T13:11:20;98866.25;;;7.83;100.00
62011;BME280;47967;51.756;10.174;2024-03-23T13:15:22;98863.59;;;8.16;100.00
62011;BME280;47967;51.756;10.174;2024-03-23T13:19:24;98848.72;;;8.34;100.00
62011;BME280;47967;51.756;10.174;2024-03-23T13:23:28;98836.31;;;8.20;100.00
62011;BME280;47967;51.756;10.174;2024-03-23T13:27:31;98847.88;;;8.40;100.00
62011;BME280;47967;51.756;10.174;2024-03-23T13:31:33;98840.00;;;8.45;100.00
62011;BME280;47967;51.756;10.174;2024-03-23T13:35:35;98833.41;;;8.55;100.00
62011;BME280;47967;51.756;10.174;2024-03-23T13:39:38;98841.56;;;8.93;97.06
62011;BME280;47967;51.756;10.174;2024-03-23T13:43:40;98839.72;;;9.71;95.43
62011;BME280;47967;51.756;10.174;2024-03-23T13:47:42;98844.03;;;10.30;88.03
62011;BME280;47967;51.756;10.174;2024-03-23T13:51:46;98831.78;;;10.08;84.96
62011;BME280;47967;51.756;10.174;2024-03-23T13:55:49;98831.75;;;9.90;84.43
62011;BME280;47967;51.756;10.174;2024-03-23T13:59:51;98828.47;;;10.06;84.14
62011;BME280;47967;51.756;10.174;2024-03-23T14:03:55;98825.91;;;10.44;82.36
62011;BME280;47967;51.756;10.174;2024-03-23T14:07:57;98814.66;;;10.21;84.00
62011;BME280;47967;51.756;10.174;2024-03-23T14:12:01;98826.41;;;9.51;88.26
62011;BME280;47967;51.756;10.174;2024-03-23T14:16:03;98843.44;;;8.93;89.85
62011;BME280;47967;51.756;10.174;2024-03-23T14:20:06;98824.50;;;8.61;94.08
62011;BME280;47967;51.756;10.174;2024-03-23T14:24:11;98836.31;;;8.46;96.14
62011;BME280;47967;51.756;10.174;2024-03-23T14:28:15;98870.63;;;8.11;98.36
62011;BME280;47967;51.756;10.174;2024-03-23T14:32:16;98894.88;;;6.94;100.00
62011;BME280;47967;51.756;10.174;2024-03-23T14:36:18;98897.84;;;6.42;100.00
62011;BME280;47967;51.756;10.174;2024-03-23T14:40:20;98896.66;;;7.21;100.00
62011;BME280;47967;51.756;10.174;2024-03-23T14:44:23;98887.88;;;7.55;100.00
62011;BME280;47967;51.756;10.174;2024-03-23T14:48:24;98863.22;;;7.24;100.00
62011;BME280;47967;51.756;10.174;2024-03-23T14:52:26;98869.03;;;7.28;100.00
62011;BME280;47967;51.756;10.174;2024-03-23T14:56:29;98856.00;;;7.25;100.00
62011;BME280;47967;51.756;10.174;2024-03-23T15:00:32;98851.31;;;7.40;100.00
62011;BME280;47967;51.756;10.174;2024-03-23T15:04:34;98851.41;;;8.21;100.00
62011;BME280;47967;51.756;10.174;2024-03-23T15:08:36;98836.56;;;9.04;100.00
62011;BME280;47967;51.756;10.174;2024-03-23T15:12:38;98833.59;;;9.89;100.00
62011;BME280;47967;51.756;10.174;2024-03-23T15:16:42;98842.03;;;10.50;100.00
62011;BME280;47967;51.756;10.174;2024-03-23T15:20:52;98836.91;;;10.17;99.50
62011;BME280;47967;51.756;10.174;2024-03-23T15:24:54;98834.88;;;10.37;99.54
62011;BME280;47967;51.756;10.174;2024-03-23T15:28:55;98832.66;;;10.53;99.18
62011;BME280;47967;51.756;10.174;2024-03-23T15:33:13;98822.56;;;11.04;95.19
62011;BME280;47967;51.756;10.174;2024-03-23T15:37:15;98817.06;;;10.92;90.88
62011;BME280;47967;51.756;10.174;2024-03-23T15:41:17;98800.53;;;10.70;82.19
62011;BME280;47967;51.756;10.174;2024-03-23T15:45:20;98794.59;;;10.17;79.49
62011;BME280;47967;51.756;10.174;2024-03-23T15:49:24;98795.06;;;9.57;85.59
62011;BME280;47967;51.756;10.174;2024-03-23T15:53:26;98910.22;;;7.13;96.73
62011;BME280;47967;51.756;10.174;2024-03-23T15:57:30;98870.38;;;3.74;100.00
62011;BME280;47967;51.756;10.174;2024-03-23T16:01:32;98828.94;;;3.86;100.00
62011;BME280;47967;51.756;10.174;2024-03-23T16:05:36;98829.56;;;4.11;100.00
62011;BME280;47967;51.756;10.174;2024-03-23T16:09:38;98826.03;;;4.26;100.00
62011;BME280;47967;51.756;10.174;2024-03-23T16:13:40;98838.13;;;4.52;100.00
62011;BME280;47967;51.756;10.174;2024-03-23T16:17:43;98848.44;;;4.70;100.00
62011;BME280;47967;51.756;10.174;2024-03-23T16:21:47;98868.53;;;4.80;100.00
62011;BME280;47967;51.756;10.174;2024-03-23T16:25:49;98857.28;;;4.85;100.00
62011;BME280;47967;51.756;10.174;2024-03-23T16:29:56;98838.38;;;5.82;100.00
62011;BME280;47967;51.756;10.174;2024-03-23T16:33:59;98836.06;;;6.22;100.00
62011;BME280;47967;51.756;10.174;2024-03-23T16:38:02;98837.66;;;6.16;100.00
62011;BME280;47967;51.756;10.174;2024-03-23T16:42:04;98844.19;;;5.85;100.00
62011;BME280;47967;51.756;10.174;2024-03-23T16:46:07;98845.78;;;5.80;100.00
62011;BME280;47967;51.756;10.174;2024-03-23T16:50:11;98843.38;;;5.63;100.00
62011;BME280;47967;51.756;10.174;2024-03-23T16:54:14;98829.72;;;5.36;100.00
62011;BME280;47967;51.756;10.174;2024-03-23T16:58:16;98827.44;;;5.55;100.00
62011;BME280;47967;51.756;10.174;2024-03-23T17:02:19;98848.72;;;5.63;100.00
62011;BME280;47967;51.756;10.174;2024-03-23T17:06:21;98862.75;;;5.65;100.00
62011;BME280;47967;51.756;10.174;2024-03-23T17:10:25;98850.69;;;5.54;100.00
62011;BME280;47967;51.756;10.174;2024-03-23T17:14:29;98835.13;;;5.65;100.00
62011;BME280;47967;51.756;10.174;2024-03-23T17:18:31;98835.38;;;5.26;100.00
62011;BME280;47967;51.756;10.174;2024-03-23T17:22:33;98827.78;;;4.93;100.00
62011;BME280;47967;51.756;10.174;2024-03-23T17:26:36;98834.34;;;4.61;100.00
62011;BME280;47967;51.756;10.174;2024-03-23T17:30:38;98833.25;;;4.40;100.00
62011;BME280;47967;51.756;10.174;2024-03-23T17:34:40;98830.63;;;4.17;100.00
62011;BME280;47967;51.756;10.174;2024-03-23T17:38:42;98818.94;;;4.03;100.00
62011;BME280;47967;51.756;10.174;2024-03-23T17:42:45;98825.16;;;3.95;100.00
62011;BME280;47967;51.756;10.174;2024-03-23T17:46:47;98835.16;;;3.78;100.00
62011;BME280;47967;51.756;10.174;2024-03-23T17:51:00;98824.19;;;3.73;100.00
62011;BME280;47967;51.756;10.174;2024-03-23T17:55:03;98824.44;;;3.63;100.00
62011;BME280;47967;51.756;10.174;2024-03-23T17:59:06;98830.84;;;3.54;100.00
62011;BME280;47967;51.756;10.174;2024-03-23T18:03:09;98824.19;;;3.50;100.00
62011;BME280;47967;51.756;10.174;2024-03-23T18:07:10;98826.91;;;3.42;100.00
62011;BME280;47967;51.756;10.174;2024-03-23T18:11:12;98823.00;;;3.29;100.00
62011;BME280;47967;51.756;10.174;2024-03-23T18:15:16;98818.56;;;3.22;100.00
62011;BME280;47967;51.756;10.174;2024-03-23T18:19:18;98813.28;;;3.13;100.00
62011;BME280;47967;51.756;10.174;2024-03-23T18:23:20;98821.50;;;3.03;100.00
62011;BME280;47967;51.756;10.174;2024-03-23T18:27:22;98821.03;;;2.92;100.00
62011;BME280;47967;51.756;10.174;2024-03-23T18:31:25;98821.75;;;2.85;100.00
62011;BME280;47967;51.756;10.174;2024-03-23T18:35:27;98826.25;;;2.85;100.00
62011;BME280;47967;51.756;10.174;2024-03-23T18:39:29;98831.28;;;2.80;100.00
62011;BME280;47967;51.756;10.174;2024-03-23T18:43:31;98820.94;;;2.77;100.00
62011;BME280;47967;51.756;10.174;2024-03-23T18:47:35;98819.13;;;2.77;100.00
62011;BME280;47967;51.756;10.174;2024-03-23T18:51:39;98823.81;;;2.67;100.00
62011;BME280;47967;51.756;10.174;2024-03-23T18:55:51;98821.63;;;2.79;100.00
62011;BME280;47967;51.756;10.174;2024-03-23T18:59:53;98821.53;;;2.95;100.00
62011;BME280;47967;51.756;10.174;2024-03-23T19:03:56;98825.94;;;3.11;100.00
62011;BME280;47967;51.756;10.174;2024-03-23T19:07:58;98820.16;;;3.08;100.00
62011;BME280;47967;51.756;10.174;2024-03-23T19:11:59;98801.66;;;3.06;100.00
62011;BME280;47967;51.756;10.174;2024-03-23T19:16:02;98810.56;;;3.22;100.00
62011;BME280;47967;51.756;10.174;2024-03-23T19:20:07;98812.28;;;3.38;100.00
62011;BME280;47967;51.756;10.174;2024-03-23T19:24:09;98814.38;;;3.50;100.00
62011;BME280;47967;51.756;10.174;2024-03-23T19:28:10;98814.00;;;3.53;100.00
62011;BME280;47967;51.756;10.174;2024-03-23T19:32:12;98812.44;;;3.44;100.00
62011;BME280;47967;51.756;10.174;2024-03-23T19:36:16;98804.94;;;3.63;100.00
62011;BME280;47967;51.756;10.174;2024-03-23T19:40:18;98800.81;;;3.60;100.00
62011;BME280;47967;51.756;10.174;2024-03-23T19:44:20;98789.44;;;3.43;100.00
62011;BME280;47967;51.756;10.174;2024-03-23T19:48:21;98785.22;;;3.26;100.00
62011;BME280;47967;51.756;10.174;2024-03-23T19:52:25;98785.28;;;3.17;100.00
62011;BME280;47967;51.756;10.174;2024-03-23T19:56:26;98782.72;;;3.01;100.00
62011;BME280;47967;51.756;10.174;2024-03-23T20:00:28;98777.38;;;3.01;100.00
62011;BME280;47967;51.756;10.174;2024-03-23T20:04:29;98787.16;;;3.09;100.00
62011;BME280;47967;51.756;10.174;2024-03-23T20:08:33;98785.16;;;3.11;100.00
62011;BME280;47967;51.756;10.174;2024-03-23T20:12:36;98771.59;;;3.20;100.00
62011;BME280;47967;51.756;10.174;2024-03-23T20:16:37;98774.19;;;3.29;100.00
62011;BME280;47967;51.756;10.174;2024-03-23T20:20:39;98787.16;;;3.32;100.00
62011;BME280;47967;51.756;10.174;2024-03-23T20:24:43;98783.19;;;3.28;100.00
62011;BME280;47967;51.756;10.174;2024-03-23T20:28:45;98781.97;;;3.39;100.00
62011;BME280;47967;51.756;10.174;2024-03-23T20:32:46;98773.19;;;3.30;100.00
62011;BME280;47967;51.756;10.174;2024-03-23T20:36:50;98778.28;;;3.40;100.00
62011;BME280;47967;51.756;10.174;2024-03-23T20:40:53;98778.69;;;3.51;100.00
62011;BME280;47967;51.756;10.174;2024-03-23T20:44:56;98777.44;;;3.62;100.00
62011;BME280;47967;51.756;10.174;2024-03-23T20:48:58;98789.31;;;3.75;100.00
62011;BME280;47967;51.756;10.174;2024-03-23T20:53:00;98787.94;;;3.64;100.00
62011;BME280;47967;51.756;10.174;2024-03-23T20:57:04;98806.19;;;3.52;100.00
62011;BME280;47967;51.756;10.174;2024-03-23T21:01:06;98808.81;;;3.37;100.00
62011;BME280;47967;51.756;10.174;2024-03-23T21:05:10;98822.97;;;3.61;100.00
62011;BME280;47967;51.756;10.174;2024-03-23T21:09:12;98830.28;;;3.82;100.00
62011;BME280;47967;51.756;10.174;2024-03-23T21:13:16;98834.66;;;3.75;100.00
62011;BME280;47967;51.756;10.174;2024-03-23T21:17:18;98825.09;;;3.65;100.00
62011;BME280;47967;51.756;10.174;2024-03-23T21:21:20;98829.47;;;3.58;100.00
62011;BME280;47967;51.756;10.174;2024-03-23T21:25:21;98841.88;;;3.51;100.00
62011;BME280;47967;51.756;10.174;2024-03-23T21:29:26;98823.97;;;3.60;100.00
62011;BME280;47967;51.756;10.174;2024-03-23T21:33:28;98807.13;;;3.59;100.00
62011;BME280;47967;51.756;10.174;2024-03-23T21:37:30;98805.75;;;3.63;100.00
62011;BME280;47967;51.756;10.174;2024-03-23T21:41:32;98802.28;;;3.63;100.00
62011;BME280;47967;51.756;10.174;2024-03-23T21:45:35;98791.41;;;3.64;100.00
62011;BME280;47967;51.756;10.174;2024-03-23T21:49:37;98783.72;;;3.46;100.00
62011;BME280;47967;51.756;10.174;2024-03-23T21:53:39;98782.50;;;3.34;100.00
62011;BME280;47967;51.756;10.174;2024-03-23T21:57:41;98786.91;;;3.18;100.00
